Time,TemperatureF,DewpointF,PressureIn,WindDirection,WindDirectionDegrees,WindSpeedMPH,WindSpeedGustMPH,Humidity,HourlyPrecipIn,Conditions,Clouds,dailyrainin,SolarRadiationWatts/m^2,SoftwareType,DateUTC
2013-08-23 00:04:00,69.8,47.5,25.35,North,0,1.2,1.2,45,0.00,RA,,0.00,0.0,WeatherDisplay:10.37,2013-08-23 06:04:00,
2013-08-23 00:09:00,69.1,48.0,25.36,North,0,3.5,3.5,47,0.00,RA,,0.00,0.0,WeatherDisplay:10.37,2013-08-23 06:09:00,
2013-08-23 00:14:00,69.3,48.2,25.36,North,0,3.5,3.5,47,0.00,CLR,,0.00,0.0,WeatherDisplay:10.37,2013-08-23 06:14:00,
2013-08-23 00:19:00,69.3,47.6,25.36,SW,225,3.5,3.5,46,0.00,CLR,,0.00,0.0,WeatherDisplay:10.37,2013-08-23 06:19:00,
2013-08-23 00:24:00,69.3,47.0,25.35,West,270,4.6,0.0,45,0.00,CLR,,0.00,0.0,WeatherDisplay:10.37,2013-08-23 06:24:00,
2013-08-23 00:29:00,69.3,47.6,25.35,West,270,3.5,3.5,46,0.00,CLR,,0.00,0.0,WeatherDisplay:10.37,2013-08-23 06:29:00,
2013-08-23 00:34:00,69.1,47.4,25.35,NW,315,3.5,3.5,46,0.00,CLR,,0.00,0.0,WeatherDisplay:10.37,2013-08-23 06:34:00,
2013-08-23 00:39:00,68.7,48.2,25.35,South,180,0.0,0.0,48,0.00,CLR,,0.00,0.0,WeatherDisplay:10.37,2013-08-23 06:39:00,
2013-08-23 00:44:00,68.4,47.9,25.35,SW,225,0.0,1.6,48,0.00,CLR,,0.00,0.0,WeatherDisplay:10.37,2013-08-23 06:44:00,
2013-08-23 00:49:00,67.8,47.4,25.35,SW,225,3.5,3.5,48,0.00,CLR,,0.00,0.0,WeatherDisplay:10.37,2013-08-23 06:49:00,
2013-08-23 00:54:00,67.5,47.6,25.35,SE,135,1.2,0.0,49,0.00,CLR,,0.00,0.0,WeatherDisplay:10.37,2013-08-23 06:54:00,
2013-08-23 00:59:00,67.1,47.8,25.35,South,180,3.5,3.5,50,0.00,CLR,,0.00,0.0,WeatherDisplay:10.37,2013-08-23 06:59:00,
2013-08-23 01:04:00,66.9,47.7,25.35,East,90,1.2,1.2,50,0.00,CLR,,0.00,0.0,WeatherDisplay:10.37,2013-08-23 07:04:00,
2013-08-23 01:09:00,66.4,47.7,25.35,South,180,1.2,0.0,51,0.00,CLR,,0.00,0.0,WeatherDisplay:10.37,2013-08-23 07:09:00,
2013-08-23 01:14:00,66.0,47.9,25.35,SW,225,1.2,0.0,52,0.00,CLR,,0.00,0.0,WeatherDisplay:10.37,2013-08-23 07:14:00,
2013-08-23 01:19:00,65.7,48.6,25.33,SW,225,0.0,0.0,54,0.00,CLR,,0.00,0.0,WeatherDisplay:10.37,2013-08-23 07:19:00,
2013-08-23 01:24:00,65.5,47.4,25.34,West,270,3.5,3.5,52,0.00,CLR,,0.00,0.0,WeatherDisplay:10.37,2013-08-23 07:24:00,
2013-08-23 01:29:00,65.3,47.7,25.33,SW,225,3.5,3.5,53,0.00,CLR,,0.00,0.0,WeatherDisplay:10.37,2013-08-23 07:29:00,
2013-08-23 01:34:00,65.3,48.7,25.33,West,270,0.0,0.0,55,0.00,CLR,,0.00,0.0,WeatherDisplay:10.37,2013-08-23 07:34:00,
2013-08-23 01:39:00,64.9,48.4,25.34,SW,225,2.3,0.0,55,0.00,CLR,,0.00,0.0,WeatherDisplay:10.37,2013-08-23 07:39:00,
2013-08-23 01:44:00,64.6,49.0,25.34,SE,135,1.2,0.0,57,0.00,CLR,,0.00,0.0,WeatherDisplay:10.37,2013-08-23 07:44:00,
2013-08-23 01:49:00,64.0,48.0,25.34,South,180,2.3,2.3,56,0.00,CLR,,0.00,0.0,WeatherDisplay:10.37,2013-08-23 07:49:00,
2013-08-23 01:54:00,63.9,48.8,25.34,South,180,2.3,0.0,58,0.00,CLR,,0.00,0.0,WeatherDisplay:10.37,2013-08-23 07:54:00,
2013-08-23 01:59:00,63.5,48.0,25.34,South,180,0.0,0.0,57,0.00,CLR,,0.00,0.0,WeatherDisplay:10.37,2013-08-23 07:59:00,
2013-08-23 02:04:00,63.5,48.5,25.34,North,0,0.0,0.0,58,0.00,CLR,,0.00,0.0,WeatherDisplay:10.37,2013-08-23 08:04:00,
2013-08-23 02:09:00,62.8,48.2,25.34,South,180,0.0,0.0,59,0.00,CLR,,0.00,0.0,WeatherDisplay:10.37,2013-08-23 08:09:00,
2013-08-23 02:14:00,62.6,47.6,25.34,West,270,0.0,0.0,58,0.00,CLR,,0.00,0.0,WeatherDisplay:10.37,2013-08-23 08:14:00,
2013-08-23 02:19:00,62.1,48.0,25.34,SE,135,0.0,0.0,60,0.00,CLR,,0.00,0.0,WeatherDisplay:10.37,2013-08-23 08:19:00,
2013-08-23 02:24:00,61.7,47.7,25.34,South,180,0.0,0.0,60,0.00,CLR,,0.00,0.0,WeatherDisplay:10.37,2013-08-23 08:24:00,
2013-08-23 02:29:00,61.5,47.5,25.33,South,180,0.0,0.0,60,0.00,CLR,,0.00,0.0,WeatherDisplay:10.37,2013-08-23 08:29:00,
2013-08-23 02:34:00,61.3,47.8,25.34,South,180,0.0,0.0,61,0.00,CLR,,0.00,0.0,WeatherDisplay:10.37,2013-08-23 08:34:00,
2013-08-23 02:39:00,61.0,47.9,25.33,South,180,0.0,0.0,62,0.00,CLR,,0.00,0.0,WeatherDisplay:10.37,2013-08-23 08:39:00,
2013-08-23 02:44:00,60.1,47.0,25.34,West,270,0.0,0.0,62,0.00,CLR,,0.00,0.0,WeatherDisplay:10.37,2013-08-23 08:44:00,
2013-08-23 02:49:00,60.1,47.4,25.34,South,180,0.0,0.0,63,0.00,CLR,,0.00,0.0,WeatherDisplay:10.37,2013-08-23 08:49:00,
2013-08-23 02:54:00,59.7,47.5,25.34,SE,135,2.3,2.3,64,0.00,CLR,,0.00,0.0,WeatherDisplay:10.37,2013-08-23 08:54:00,
2013-08-23 02:59:00,59.4,47.2,25.34,SSE,158,3.5,3.5,64,0.00,CLR,,0.00,0.0,WeatherDisplay:10.37,2013-08-23 08:59:00,
2013-08-23 03:04:00,59.4,47.6,25.34,SE,135,3.5,3.5,65,0.00,CLR,,0.00,0.0,WeatherDisplay:10.37,2013-08-23 09:04:00,
2013-08-23 03:09:00,59.2,47.4,25.34,South,180,3.5,0.0,65,0.00,CLR,,0.00,0.0,WeatherDisplay:10.37,2013-08-23 09:09:00,
2013-08-23 03:14:00,58.8,47.5,25.33,South,180,1.2,1.6,66,0.00,CLR,,0.00,0.0,WeatherDisplay:10.37,2013-08-23 09:14:00,
2013-08-23 03:19:00,58.5,47.1,25.33,South,180,0.0,0.0,66,0.00,CLR,,0.00,0.0,WeatherDisplay:10.37,2013-08-23 09:19:00,
2013-08-23 03:24:00,58.1,46.8,25.34,South,180,0.0,0.0,66,0.00,CLR,,0.00,0.0,WeatherDisplay:10.37,2013-08-23 09:24:00,
2013-08-23 03:29:00,57.7,46.9,25.34,South,180,0.0,0.0,67,0.00,CLR,,0.00,0.0,WeatherDisplay:10.37,2013-08-23 09:29:00,
2013-08-23 03:34:00,57.6,47.1,25.34,SW,225,2.3,0.0,68,0.00,CLR,,0.00,0.0,WeatherDisplay:10.37,2013-08-23 09:34:00,
2013-08-23 03:39:00,57.2,46.7,25.33,SE,135,2.3,0.0,68,0.00,CLR,,0.00,0.0,WeatherDisplay:10.37,2013-08-23 09:39:00,
2013-08-23 03:44:00,57.0,46.6,25.33,South,180,2.3,2.3,68,0.00,CLR,,0.00,0.0,WeatherDisplay:10.37,2013-08-23 09:44:00,
2013-08-23 03:49:00,56.7,46.2,25.33,South,180,1.2,0.0,68,0.00,CLR,,0.00,0.0,WeatherDisplay:10.37,2013-08-23 09:49:00,
2013-08-23 03:54:00,56.3,46.3,25.34,SE,135,2.3,2.3,69,0.00,CLR,,0.00,0.0,WeatherDisplay:10.37,2013-08-23 09:54:00,
2013-08-23 03:59:00,55.8,46.1,25.34,South,180,3.5,0.0,70,0.00,CLR,,0.00,0.0,WeatherDisplay:10.37,2013-08-23 09:59:00,
2013-08-23 04:04:00,55.8,46.1,25.33,South,180,1.2,0.0,70,0.00,CLR,,0.00,0.0,WeatherDisplay:10.37,2013-08-23 10:04:00,
2013-08-23 04:09:00,55.4,46.2,25.34,South,180,2.3,2.3,71,0.00,CLR,,0.00,0.0,WeatherDisplay:10.37,2013-08-23 10:09:00,
2013-08-23 04:14:00,55.0,46.2,25.34,SE,135,2.3,2.3,72,0.00,CLR,,0.00,0.0,WeatherDisplay:10.37,2013-08-23 10:14:00,
2013-08-23 04:19:00,54.7,46.2,25.33,SE,135,3.5,3.5,73,0.00,CLR,,0.00,0.0,WeatherDisplay:10.37,2013-08-23 10:19:00,
2013-08-23 04:24:00,54.5,46.0,25.33,South,180,0.0,0.0,73,0.00,CLR,,0.00,0.0,WeatherDisplay:10.37,2013-08-23 10:24:00,
2013-08-23 04:29:00,54.5,46.4,25.33,SSE,158,3.5,3.5,74,0.00,CLR,,0.00,0.0,WeatherDisplay:10.37,2013-08-23 10:29:00,
2013-08-23 04:34:00,54.3,46.2,25.34,South,180,3.5,3.5,74,0.00,CLR,,0.00,0.0,WeatherDisplay:10.37,2013-08-23 10:34:00,
2013-08-23 04:39:00,54.0,45.9,25.34,South,180,3.5,3.5,74,0.00,CLR,,0.00,0.0,WeatherDisplay:10.37,2013-08-23 10:39:00,
2013-08-23 04:44:00,53.8,45.7,25.34,SSE,158,3.5,3.5,74,0.00,CLR,,0.00,0.0,WeatherDisplay:10.37,2013-08-23 10:44:00,
2013-08-23 04:49:00,53.6,45.9,25.34,South,180,2.3,2.3,75,0.00,CLR,,0.00,0.0,WeatherDisplay:10.37,2013-08-23 10:49:00,
2013-08-23 04:54:00,53.6,45.9,25.34,SE,135,2.3,2.3,75,0.00,CLR,,0.00,0.0,WeatherDisplay:10.37,2013-08-23 10:54:00,
2013-08-23 04:59:00,53.4,45.7,25.34,SSE,158,3.5,3.5,75,0.00,CLR,,0.00,0.0,WeatherDisplay:10.37,2013-08-23 10:59:00,
2013-08-23 05:04:00,53.4,46.0,25.34,SSE,158,3.5,3.5,76,0.00,CLR,,0.00,0.0,WeatherDisplay:10.37,2013-08-23 11:04:00,
2013-08-23 05:09:00,53.4,46.0,25.34,SE,135,3.5,0.0,76,0.00,CLR,,0.00,0.0,WeatherDisplay:10.37,2013-08-23 11:09:00,
2013-08-23 05:14:00,53.4,46.0,25.33,SE,135,1.2,1.2,76,0.00,CLR,,0.00,0.0,WeatherDisplay:10.37,2013-08-23 11:14:00,
2013-08-23 05:19:00,53.1,45.7,25.34,South,180,1.2,1.2,76,0.00,CLR,,0.00,0.0,WeatherDisplay:10.37,2013-08-23 11:19:00,
2013-08-23 05:24:00,52.9,45.5,25.34,West,270,1.2,0.0,76,0.00,CLR,,0.00,0.0,WeatherDisplay:10.37,2013-08-23 11:24:00,
2013-08-23 05:29:00,52.9,45.5,25.33,SE,135,0.0,0.0,76,0.00,CLR,,0.00,0.0,WeatherDisplay:10.37,2013-08-23 11:29:00,
2013-08-23 05:34:00,52.7,45.3,25.33,South,180,0.0,0.0,76,0.00,CLR,,0.00,0.0,WeatherDisplay:10.37,2013-08-23 11:34:00,
2013-08-23 05:39:00,52.3,45.3,25.33,South,180,0.0,0.0,77,0.00,CLR,,0.00,0.0,WeatherDisplay:10.37,2013-08-23 11:39:00,
2013-08-23 05:44:00,52.3,45.3,25.34,South,180,0.0,0.0,77,0.00,CLR,,0.00,0.0,WeatherDisplay:10.37,2013-08-23 11:44:00,
2013-08-23 05:49:00,52.2,45.2,25.33,South,180,2.3,0.0,77,0.00,CLR,,0.00,0.0,WeatherDisplay:10.37,2013-08-23 11:49:00,
2013-08-23 05:54:00,52.2,45.5,25.33,South,180,1.6,1.6,78,0.00,CLR,,0.00,0.0,WeatherDisplay:10.37,2013-08-23 11:54:00,
2013-08-23 05:59:00,52.2,45.5,25.33,South,180,1.2,0.0,78,0.00,CLR,,0.00,0.0,WeatherDisplay:10.37,2013-08-23 11:59:00,
2013-08-23 06:04:00,52.2,45.5,25.33,South,180,1.2,0.0,78,0.00,CLR,,0.00,0.0,WeatherDisplay:10.37,2013-08-23 12:04:00,
2013-08-23 06:09:00,52.0,45.3,25.34,South,180,0.0,0.0,78,0.00,CLR,,0.00,0.0,WeatherDisplay:10.37,2013-08-23 12:09:00,
2013-08-23 06:14:00,51.8,45.2,25.34,South,180,2.3,2.3,78,0.00,CLR,,0.00,0.0,WeatherDisplay:10.37,2013-08-23 12:14:00,
2013-08-23 06:19:00,51.6,45.3,25.34,South,180,1.2,0.0,79,0.00,CLR,,0.00,0.0,WeatherDisplay:10.37,2013-08-23 12:19:00,
2013-08-23 06:24:00,51.6,45.3,25.34,South,180,0.0,0.0,79,0.00,CLR,,0.00,0.0,WeatherDisplay:10.37,2013-08-23 12:24:00,
2013-08-23 06:29:00,51.6,45.3,25.33,West,270,0.0,0.0,79,0.00,CLR,,0.00,0.0,WeatherDisplay:10.37,2013-08-23 12:29:00,
2013-08-23 06:34:00,51.4,45.1,25.33,West,270,0.0,0.0,79,0.00,CLR,,0.00,0.0,WeatherDisplay:10.37,2013-08-23 12:34:00,
2013-08-23 06:39:00,51.4,45.1,25.33,West,270,0.0,0.0,79,0.00,CLR,,0.00,0.0,WeatherDisplay:10.37,2013-08-23 12:39:00,
2013-08-23 06:44:00,51.4,45.5,25.33,West,270,0.0,0.0,80,0.00,BKN,,0.00,1.0,WeatherDisplay:10.37,2013-08-23 12:44:00,
2013-08-23 06:49:00,51.4,45.1,25.33,South,180,0.0,0.0,79,0.00,BKN,,0.00,3.1,WeatherDisplay:10.37,2013-08-23 12:49:00,
2013-08-23 06:54:00,51.3,45.3,25.33,South,180,0.0,0.0,80,0.00,BKN,,0.00,5.1,WeatherDisplay:10.37,2013-08-23 12:54:00,
2013-08-23 06:59:00,51.3,45.3,25.33,South,180,0.0,0.0,80,0.00,BKN,,0.00,7.4,WeatherDisplay:10.37,2013-08-23 12:59:00,
2013-08-23 07:04:00,51.3,45.3,25.32,South,180,0.0,0.0,80,0.00,BKN,,0.00,0.0,WeatherDisplay:10.37,2013-08-23 13:04:00,
2013-08-23 07:09:00,51.3,45.3,25.33,South,180,0.0,0.0,80,0.00,BKN,,0.00,11.9,WeatherDisplay:10.37,2013-08-23 13:09:00,
2013-08-23 07:14:00,51.3,45.3,25.33,South,180,0.0,0.0,80,0.00,BKN,,0.00,14.3,WeatherDisplay:10.37,2013-08-23 13:14:00,
2013-08-23 07:19:00,51.4,45.5,25.33,South,180,0.0,0.0,80,0.00,BKN,,0.00,16.8,WeatherDisplay:10.37,2013-08-23 13:19:00,
2013-08-23 07:24:00,51.6,45.7,25.33,South,180,0.0,0.0,80,0.00,BKN,,0.00,19.2,WeatherDisplay:10.37,2013-08-23 13:24:00,
2013-08-23 07:29:00,51.8,45.8,25.33,South,180,0.0,0.0,80,0.00,BKN,,0.00,21.9,WeatherDisplay:10.37,2013-08-23 13:29:00,
2013-08-23 07:34:00,51.8,45.8,25.33,South,180,0.0,0.0,80,0.00,BKN,,0.00,24.3,WeatherDisplay:10.37,2013-08-23 13:34:00,
2013-08-23 07:39:00,52.0,46.0,25.33,South,180,0.0,0.0,80,0.00,BKN,,0.00,27.2,WeatherDisplay:10.37,2013-08-23 13:39:00,
2013-08-23 07:44:00,52.2,46.5,25.33,South,180,0.0,0.0,81,0.00,BKN,,0.00,29.9,WeatherDisplay:10.37,2013-08-23 13:44:00,
2013-08-23 07:49:00,52.2,46.5,25.33,South,180,0.0,0.0,81,0.00,BKN,,0.00,32.7,WeatherDisplay:10.37,2013-08-23 13:49:00,
2013-08-23 07:54:00,52.5,46.9,25.33,West,270,0.0,0.0,81,0.00,BKN,,0.00,35.6,WeatherDisplay:10.37,2013-08-23 13:54:00,
2013-08-23 07:59:00,52.9,47.2,25.33,South,180,0.0,0.0,81,0.00,BKN,,0.00,38.5,WeatherDisplay:10.37,2013-08-23 13:59:00,
2013-08-23 08:04:00,53.1,47.4,25.33,South,180,0.0,0.0,81,0.00,BKN,,0.00,41.3,WeatherDisplay:10.37,2013-08-23 14:04:00,
2013-08-23 08:09:00,53.8,47.8,25.33,South,180,0.0,0.0,80,0.00,BKN,,0.00,44.4,WeatherDisplay:10.37,2013-08-23 14:09:00,
2013-08-23 08:14:00,54.3,47.9,25.33,SE,135,0.0,0.0,79,0.00,BKN,,0.00,47.5,WeatherDisplay:10.37,2013-08-23 14:14:00,
2013-08-23 08:19:00,54.9,48.5,25.33,South,180,0.0,0.0,79,0.00,BKN,,0.00,50.5,WeatherDisplay:10.37,2013-08-23 14:19:00,
2013-08-23 08:24:00,55.4,49.0,25.33,South,180,0.0,0.0,79,0.00,BKN,,0.00,53.6,WeatherDisplay:10.37,2013-08-23 14:24:00,
2013-08-23 08:29:00,55.9,49.2,25.33,South,180,0.0,0.0,78,0.00,BKN,,0.00,56.9,WeatherDisplay:10.37,2013-08-23 14:29:00,
2013-08-23 08:34:00,56.7,49.9,25.33,North,0,0.0,0.0,78,0.00,BKN,,0.00,60.1,WeatherDisplay:10.37,2013-08-23 14:34:00,
2013-08-23 08:39:00,57.2,49.7,25.33,North,0,0.0,0.0,76,0.00,BKN,,0.00,63.4,WeatherDisplay:10.37,2013-08-23 14:39:00,
2013-08-23 08:44:00,58.1,50.2,25.33,West,270,0.0,0.0,75,0.00,BKN,,0.00,0.0,WeatherDisplay:10.37,2013-08-23 14:44:00,
2013-08-23 08:49:00,58.8,50.9,25.33,North,0,0.0,0.0,75,0.00,BKN,,0.00,70.0,WeatherDisplay:10.37,2013-08-23 14:49:00,
2013-08-23 08:54:00,59.4,51.1,25.33,North,0,0.0,0.0,74,0.00,BKN,,0.00,73.2,WeatherDisplay:10.37,2013-08-23 14:54:00,
2013-08-23 08:59:00,60.1,51.4,25.33,South,180,0.0,0.0,73,0.00,BKN,,0.00,0.0,WeatherDisplay:10.37,2013-08-23 14:59:00,
2013-08-23 09:04:00,60.1,51.4,25.33,South,180,0.0,0.0,73,0.00,BKN,,0.00,80.0,WeatherDisplay:10.37,2013-08-23 15:04:00,
2013-08-23 09:09:00,61.3,51.9,25.32,West,270,0.0,0.0,71,0.00,BKN,,0.00,83.5,WeatherDisplay:10.37,2013-08-23 15:09:00,
2013-08-23 09:14:00,62.1,51.8,25.33,South,180,0.0,0.0,69,0.00,BKN,,0.00,86.9,WeatherDisplay:10.37,2013-08-23 15:14:00,
2013-08-23 09:19:00,63.0,52.2,25.32,South,180,0.0,0.0,68,0.00,BKN,,0.00,90.2,WeatherDisplay:10.37,2013-08-23 15:19:00,
2013-08-23 09:24:00,63.7,52.5,25.32,South,180,0.0,0.0,67,0.00,BKN,,0.00,93.7,WeatherDisplay:10.37,2013-08-23 15:24:00,
2013-08-23 09:29:00,64.6,51.7,25.32,NW,315,0.0,0.0,63,0.00,BKN,,0.00,97.2,WeatherDisplay:10.37,2013-08-23 15:29:00,
2013-08-23 09:34:00,65.7,51.4,25.32,NW,315,0.0,0.0,60,0.00,BKN,,0.00,0.0,WeatherDisplay:10.37,2013-08-23 15:34:00,
2013-08-23 09:39:00,66.7,51.5,25.32,NW,315,0.0,0.0,58,0.00,BKN,,0.00,104.1,WeatherDisplay:10.37,2013-08-23 15:39:00,
2013-08-23 09:44:00,68.0,51.7,25.32,North,0,0.0,0.0,56,0.00,BKN,,0.00,107.4,WeatherDisplay:10.37,2013-08-23 15:44:00,
2013-08-23 09:49:00,69.1,50.7,25.32,NW,315,3.5,0.0,52,0.00,BKN,,0.00,0.0,WeatherDisplay:10.37,2013-08-23 15:49:00,
2013-08-23 09:54:00,70.0,51.5,25.32,North,0,4.6,4.6,52,0.00,BKN,,0.00,114.3,WeatherDisplay:10.37,2013-08-23 15:54:00,
2013-08-23 09:59:00,70.7,51.1,25.33,SW,225,3.5,3.5,50,0.00,BKN,,0.00,117.8,WeatherDisplay:10.37,2013-08-23 15:59:00,
2013-08-23 10:04:00,70.9,51.3,25.33,West,270,3.5,3.5,50,0.00,BKN,,0.00,121.1,WeatherDisplay:10.37,2013-08-23 16:04:00,
2013-08-23 10:09:00,72.3,50.4,25.33,North,0,4.6,4.6,46,0.00,BKN,,0.00,0.0,WeatherDisplay:10.37,2013-08-23 16:09:00,
2013-08-23 10:14:00,72.5,49.9,25.34,NW,315,2.3,2.3,45,0.00,BKN,,0.00,127.8,WeatherDisplay:10.37,2013-08-23 16:14:00,
2013-08-23 10:19:00,72.3,50.4,25.33,North,0,3.5,0.0,46,0.00,BKN,,0.00,131.1,WeatherDisplay:10.37,2013-08-23 16:19:00,
2013-08-23 10:24:00,72.1,49.6,25.34,North,0,2.3,2.3,45,0.00,BKN,,0.00,0.0,WeatherDisplay:10.37,2013-08-23 16:24:00,
2013-08-23 10:29:00,72.1,51.4,25.34,NW,315,2.3,0.0,48,0.00,BKN,,0.00,137.7,WeatherDisplay:10.37,2013-08-23 16:29:00,
2013-08-23 10:34:00,72.1,50.8,25.34,NW,315,5.8,5.8,47,0.00,BKN,,0.00,140.9,WeatherDisplay:10.37,2013-08-23 16:34:00,
2013-08-23 10:39:00,72.3,51.0,25.34,East,90,4.6,4.6,47,0.00,BKN,,0.00,0.0,WeatherDisplay:10.37,2013-08-23 16:39:00,
2013-08-23 10:44:00,72.3,49.8,25.34,North,0,4.6,4.6,45,0.00,BKN,,0.00,147.1,WeatherDisplay:10.37,2013-08-23 16:44:00,
2013-08-23 10:49:00,72.9,50.3,25.35,North,0,5.8,5.8,45,0.00,BKN,,0.00,150.1,WeatherDisplay:10.37,2013-08-23 16:49:00,
2013-08-23 10:54:00,73.2,50.0,25.35,NW,315,3.5,3.5,44,0.00,BKN,,0.00,0.0,WeatherDisplay:10.37,2013-08-23 16:54:00,
2013-08-23 18:24:00,73.2,50.0,25.28,North,0,0.0,0.0,44,0.00,CLR,,0.00,,WeatherDisplay:10.37,2013-08-24 00:24:00,
2013-08-23 18:29:00,80.1,42.1,25.22,South,180,5.8,5.8,26,0.00,BKN,,0.00,0.0,WeatherDisplay:10.37,2013-08-24 00:29:00,
2013-08-23 18:34:00,79.9,42.9,25.22,NW,315,4.6,4.6,27,0.00,BKN,,0.00,0.0,WeatherDisplay:10.37,2013-08-24 00:34:00,
2013-08-23 18:39:00,79.5,42.6,25.22,WSW,248,3.5,3.5,27,0.00,BKN,,0.00,0.0,WeatherDisplay:10.37,2013-08-24 00:39:00,
2013-08-23 18:44:00,79.2,42.3,25.22,NW,315,5.8,5.8,27,0.00,BKN,,0.00,0.0,WeatherDisplay:10.37,2013-08-24 00:44:00,
2013-08-23 18:49:00,79.0,42.1,25.23,SW,225,3.5,3.5,27,0.00,BKN,,0.00,0.0,WeatherDisplay:10.37,2013-08-24 00:49:00,
2013-08-23 18:54:00,78.8,42.9,25.23,NW,315,3.5,0.0,28,0.00,BKN,,0.00,0.0,WeatherDisplay:10.37,2013-08-24 00:54:00,
2013-08-23 18:59:00,78.6,42.8,25.23,NW,315,5.8,5.8,28,0.00,BKN,,0.00,0.0,WeatherDisplay:10.37,2013-08-24 00:59:00,
2013-08-23 19:04:00,78.4,42.6,25.23,NW,315,1.2,1.2,28,0.00,BKN,,0.00,0.0,WeatherDisplay:10.37,2013-08-24 01:04:00,
2013-08-23 19:09:00,78.3,42.5,25.23,NW,315,3.5,3.5,28,0.00,BKN,,0.00,0.0,WeatherDisplay:10.37,2013-08-24 01:09:00,
2013-08-23 19:14:00,78.1,42.3,25.23,West,270,4.6,0.0,28,0.00,BKN,,0.00,0.0,WeatherDisplay:10.37,2013-08-24 01:14:00,
2013-08-23 19:19:00,77.7,41.1,25.23,SW,225,4.6,0.0,27,0.00,BKN,,0.00,0.0,WeatherDisplay:10.37,2013-08-24 01:19:00,
2013-08-23 19:24:00,77.5,39.9,25.23,SW,225,4.6,0.0,26,0.00,BKN,,0.00,0.0,WeatherDisplay:10.37,2013-08-24 01:24:00,
2013-08-23 19:29:00,77.5,39.9,25.23,South,180,5.8,5.8,26,0.00,BKN,,0.00,0.0,WeatherDisplay:10.37,2013-08-24 01:29:00,
2013-08-23 19:34:00,77.4,39.8,25.23,SW,225,2.3,0.0,26,0.00,BKN,,0.00,0.0,WeatherDisplay:10.37,2013-08-24 01:34:00,
2013-08-23 19:39:00,77.0,40.4,25.23,North,0,8.1,0.0,27,0.00,BKN,,0.00,0.0,WeatherDisplay:10.37,2013-08-24 01:39:00,
2013-08-23 19:44:00,76.6,41.1,25.23,NW,315,1.2,0.0,28,0.00,BKN,,0.00,0.0,WeatherDisplay:10.37,2013-08-24 01:44:00,
2013-08-23 19:49:00,76.1,41.5,25.23,NW,315,5.8,0.0,29,0.00,BKN,,0.00,0.0,WeatherDisplay:10.37,2013-08-24 01:49:00,
2013-08-23 19:54:00,75.4,40.9,25.24,NW,315,8.1,0.0,29,0.00,BKN,,0.00,0.0,WeatherDisplay:10.37,2013-08-24 01:54:00,
2013-08-23 19:59:00,74.8,41.3,25.24,North,0,3.5,3.5,30,0.00,BKN,,0.00,0.0,WeatherDisplay:10.37,2013-08-24 01:59:00,
2013-08-23 20:04:00,74.7,41.2,25.24,North,0,3.5,3.5,30,0.00,BKN,,0.00,0.0,WeatherDisplay:10.37,2013-08-24 02:04:00,
2013-08-23 20:09:00,73.6,41.9,25.24,NW,315,4.6,4.6,32,0.00,BKN,,0.00,0.0,WeatherDisplay:10.37,2013-08-24 02:09:00,
2013-08-23 20:14:00,72.9,42.1,25.24,North,0,5.8,5.8,33,0.00,BKN,,0.00,0.0,WeatherDisplay:10.37,2013-08-24 02:14:00,
2013-08-23 20:19:00,72.3,42.4,25.24,SW,225,5.8,5.8,34,0.00,CLR,,0.00,0.0,WeatherDisplay:10.37,2013-08-24 02:19:00,
2013-08-23 20:24:00,72.0,42.0,25.24,NE,45,5.8,0.0,34,0.00,CLR,,0.00,0.0,WeatherDisplay:10.37,2013-08-24 02:24:00,
2013-08-23 20:29:00,71.4,42.3,25.24,NE,45,3.5,3.5,35,0.00,CLR,,0.00,0.0,WeatherDisplay:10.37,2013-08-24 02:29:00,
2013-08-23 20:34:00,71.1,42.7,25.24,NW,315,1.2,1.2,36,0.00,CLR,,0.00,0.0,WeatherDisplay:10.37,2013-08-24 02:34:00,
2013-08-23 20:39:00,70.5,42.3,25.25,NW,315,2.3,2.3,36,0.00,CLR,,0.00,0.0,WeatherDisplay:10.37,2013-08-24 02:39:00,
2013-08-23 20:44:00,70.3,42.8,25.25,South,180,0.0,0.0,37,0.00,CLR,,0.00,0.0,WeatherDisplay:10.37,2013-08-24 02:44:00,
2013-08-23 20:49:00,69.8,42.3,25.25,South,180,1.2,1.6,37,0.00,CLR,,0.00,0.0,WeatherDisplay:10.37,2013-08-24 02:49:00,
2013-08-23 20:54:00,69.3,41.9,25.25,SW,225,2.3,0.0,37,0.00,CLR,,0.00,0.0,WeatherDisplay:10.37,2013-08-24 02:54:00,
2013-08-23 20:59:00,68.9,42.2,25.26,South,180,0.0,0.0,38,0.00,CLR,,0.00,0.0,WeatherDisplay:10.37,2013-08-24 02:59:00,
2013-08-23 21:04:00,68.7,42.1,25.26,West,270,1.2,0.0,38,0.00,CLR,,0.00,0.0,WeatherDisplay:10.37,2013-08-24 03:04:00,
2013-08-23 21:09:00,67.8,42.6,25.27,South,180,1.2,0.0,40,0.00,CLR,,0.00,0.0,WeatherDisplay:10.37,2013-08-24 03:09:00,
2013-08-23 21:14:00,67.3,43.4,25.26,South,180,1.2,0.0,42,0.00,CLR,,0.00,0.0,WeatherDisplay:10.37,2013-08-24 03:14:00,
2013-08-23 21:19:00,66.9,43.1,25.27,South,180,3.5,3.5,42,0.00,CLR,,0.00,0.0,WeatherDisplay:10.37,2013-08-24 03:19:00,
2013-08-23 21:24:00,66.7,43.5,25.27,SW,225,1.2,0.0,43,0.00,CLR,,0.00,0.0,WeatherDisplay:10.37,2013-08-24 03:24:00,
2013-08-23 21:29:00,66.4,43.8,25.27,SW,225,0.0,0.0,44,0.00,CLR,,0.00,0.0,WeatherDisplay:10.37,2013-08-24 03:29:00,
2013-08-23 21:34:00,65.8,43.9,25.27,SE,135,2.3,2.3,45,0.00,CLR,,0.00,0.0,WeatherDisplay:10.37,2013-08-24 03:34:00,
2013-08-23 21:39:00,65.5,43.6,25.26,South,180,1.2,1.2,45,0.00,CLR,,0.00,0.0,WeatherDisplay:10.37,2013-08-24 03:39:00,
2013-08-23 21:44:00,64.9,43.7,25.27,South,180,1.2,0.0,46,0.00,CLR,,0.00,0.0,WeatherDisplay:10.37,2013-08-24 03:44:00,
2013-08-23 21:49:00,64.8,44.1,25.27,SW,225,2.3,0.0,47,0.00,CLR,,0.00,0.0,WeatherDisplay:10.37,2013-08-24 03:49:00,
2013-08-23 21:54:00,64.0,43.4,25.27,SW,225,0.0,0.0,47,0.00,CLR,,0.00,0.0,WeatherDisplay:10.37,2013-08-24 03:54:00,
2013-08-23 21:59:00,63.7,43.6,25.27,NW,315,0.0,0.0,48,0.00,CLR,,0.00,0.0,WeatherDisplay:10.37,2013-08-24 03:59:00,
2013-08-23 22:01:00,63.5,43.4,25.27,NW,315,0.0,0.0,48,0.00,CLR,,0.00,0.0,WeatherDisplay:10.37,2013-08-24 04:01:00,
2013-08-23 22:03:00,63.5,43.4,25.27,NW,315,0.0,0.0,48,0.00,CLR,,0.00,0.0,WeatherDisplay:10.37,2013-08-24 04:03:00,
2013-08-23 22:04:00,63.5,43.4,25.27,NW,315,0.0,0.0,48,0.00,CLR,,0.00,0.0,WeatherDisplay:10.37,2013-08-24 04:04:00,
2013-08-23 22:09:00,62.8,43.9,25.27,SW,225,0.0,0.0,50,0.00,CLR,,0.00,0.0,WeatherDisplay:10.37,2013-08-24 04:09:00,
2013-08-23 22:14:00,62.2,43.4,25.27,SW,225,0.0,0.0,50,0.00,CLR,,0.00,0.0,WeatherDisplay:10.37,2013-08-24 04:14:00,
2013-08-23 22:19:00,61.9,43.5,25.27,SW,225,0.0,0.0,51,0.00,CLR,,0.00,0.0,WeatherDisplay:10.37,2013-08-24 04:19:00,
2013-08-23 22:24:00,61.5,43.2,25.28,SW,225,0.0,0.0,51,0.00,CLR,,0.00,0.0,WeatherDisplay:10.37,2013-08-24 04:24:00,
2013-08-23 22:29:00,61.2,43.9,25.27,South,180,2.3,2.3,53,0.00,CLR,,0.00,0.0,WeatherDisplay:10.37,2013-08-24 04:29:00,
2013-08-23 22:34:00,60.8,43.6,25.28,SW,225,1.2,0.0,53,0.00,CLR,,0.00,0.0,WeatherDisplay:10.37,2013-08-24 04:34:00,
2013-08-23 22:39:00,60.4,43.7,25.27,SW,225,0.0,0.0,54,0.00,CLR,,0.00,0.0,WeatherDisplay:10.37,2013-08-24 04:39:00,
2013-08-23 22:44:00,60.3,43.5,25.28,SW,225,1.2,0.0,54,0.00,CLR,,0.00,0.0,WeatherDisplay:10.37,2013-08-24 04:44:00,
2013-08-23 22:49:00,60.1,43.9,25.27,SSE,158,0.0,0.0,55,0.00,CLR,,0.00,0.0,WeatherDisplay:10.37,2013-08-24 04:49:00,
2013-08-23 22:54:00,59.9,43.7,25.28,South,180,0.0,0.0,55,0.00,CLR,,0.00,0.0,WeatherDisplay:10.37,2013-08-24 04:54:00,
2013-08-23 22:59:00,59.7,43.5,25.28,South,180,0.0,0.0,55,0.00,CLR,,0.00,0.0,WeatherDisplay:10.37,2013-08-24 04:59:00,
2013-08-23 23:04:00,59.7,43.5,25.28,South,180,0.0,0.0,55,0.00,CLR,,0.00,0.0,WeatherDisplay:10.37,2013-08-24 05:04:00,
2013-08-23 23:09:00,59.5,43.8,25.28,ESE,112,0.0,0.0,56,0.00,CLR,,0.00,0.0,WeatherDisplay:10.37,2013-08-24 05:09:00,
2013-08-23 23:14:00,59.2,43.9,25.28,South,180,0.0,0.0,57,0.00,CLR,,0.00,0.0,WeatherDisplay:10.37,2013-08-24 05:14:00,
2013-08-23 23:19:00,59.0,43.3,25.28,SW,225,0.0,0.0,56,0.00,CLR,,0.00,0.0,WeatherDisplay:10.37,2013-08-24 05:19:00,
2013-08-23 23:24:00,59.0,43.8,25.29,SW,225,0.0,0.0,57,0.00,CLR,,0.00,0.0,WeatherDisplay:10.37,2013-08-24 05:24:00,
2013-08-23 23:29:00,58.8,43.6,25.28,SW,225,0.0,0.0,57,0.00,CLR,,0.00,0.0,WeatherDisplay:10.37,2013-08-24 05:29:00,
2013-08-23 23:34:00,58.6,43.9,25.28,North,0,0.0,0.0,58,0.00,CLR,,0.00,0.0,WeatherDisplay:10.37,2013-08-24 05:34:00,
2013-08-23 23:39:00,58.3,44.0,25.28,SW,225,0.0,0.0,59,0.00,CLR,,0.00,0.0,WeatherDisplay:10.37,2013-08-24 05:39:00,
2013-08-23 23:44:00,58.1,43.4,25.29,South,180,0.0,0.0,58,0.00,CLR,,0.00,0.0,WeatherDisplay:10.37,2013-08-24 05:44:00,
2013-08-23 23:49:00,58.1,43.4,25.29,South,180,0.0,0.0,58,0.00,CLR,,0.00,0.0,WeatherDisplay:10.37,2013-08-24 05:49:00,
2013-08-23 23:54:00,57.9,43.2,25.28,SW,225,0.0,0.0,58,0.00,CLR,,0.00,0.0,WeatherDisplay:10.37,2013-08-24 05:54:00,
2013-08-23 23:59:00,57.9,44.1,25.28,South,180,0.0,0.0,60,0.00,CLR,,0.00,0.0,WeatherDisplay:10.37,2013-08-24 05:59:00,